Time;durP1;ratioP1;P1;durP2;ratioP2;P2;SDS_P1;SDS_P2;PMS_P1;PMS_P2;Temp;Humidity;BMP_temperature;BMP_pressure;BME280_temperature;BME280_humidity;BME280_pressure;Samples;Min_cycle;Max_cycle;Signal;HPM_P1;HPM_P2
2021/06/15 00:01:19;;;;;;;12.55;11.30;;;23.50;78.80;;;;;;6122477;23;20053;-82
2021/06/15 00:03:45;;;;;;;13.20;11.32;;;23.50;78.90;;;;;;6122230;23;20504;-84
2021/06/15 00:06:11;;;;;;;12.90;11.15;;;23.50;78.90;;;;;;6122668;23;20010;-84
2021/06/15 00:08:37;;;;;;;12.82;10.95;;;23.50;78.90;;;;;;6097864;23;20010;-84
2021/06/15 00:11:04;;;;;;;13.38;10.57;;;23.50;78.70;;;;;;6122624;23;20017;-83
2021/06/15 00:13:29;;;;;;;11.75;10.55;;;23.50;78.70;;;;;;6096628;23;20097;-83
2021/06/15 00:15:55;;;;;;;13.55;10.30;;;23.50;79.50;;;;;;6096799;23;20018;-83
2021/06/15 00:18:21;;;;;;;10.82;8.93;;;23.50;79.00;;;;;;6122359;23;20025;-85
2021/06/15 00:20:50;;;;;;;12.32;9.07;;;23.50;79.40;;;;;;6096662;23;20085;-82
2021/06/15 00:23:16;;;;;;;17.48;9.30;;;23.40;79.60;;;;;;6096530;23;20151;-84
2021/06/15 00:25:42;;;;;;;11.65;9.35;;;23.40;79.60;;;;;;6122421;23;20444;-84
2021/06/15 00:28:08;;;;;;;11.15;10.02;;;23.40;79.70;;;;;;6096435;23;20092;-82
2021/06/15 00:30:35;;;;;;;13.90;10.93;;;23.40;79.30;;;;;;6122203;23;20014;-80
2021/06/15 00:33:01;;;;;;;14.25;11.90;;;23.40;79.10;;;;;;6122512;23;20022;-81
2021/06/15 00:35:27;;;;;;;13.55;12.25;;;23.40;79.00;;;;;;6096521;23;20045;-81
2021/06/15 00:37:53;;;;;;;13.02;10.82;;;23.30;78.90;;;;;;6096622;23;20097;-81
2021/06/15 00:40:20;;;;;;;16.08;11.57;;;23.30;79.20;;;;;;6096567;23;20049;-82
2021/06/15 00:42:46;;;;;;;13.45;11.27;;;23.30;79.50;;;;;;6096336;23;20120;-82
2021/06/15 00:45:16;;;;;;;11.18;9.93;;;23.30;79.60;;;;;;6096269;23;20017;-80
2021/06/15 00:47:45;;;;;;;11.75;9.98;;;23.30;79.70;;;;;;6072028;23;20368;-80
2021/06/15 00:50:12;;;;;;;11.40;9.20;;;23.30;79.90;;;;;;6122289;23;20009;-79
2021/06/15 00:52:38;;;;;;;9.25;8.13;;;23.20;80.10;;;;;;6096638;23;20014;-79
2021/06/15 00:55:06;;;;;;;10.75;9.00;;;23.10;80.30;;;;;;6072316;23;20006;-78
2021/06/15 00:57:33;;;;;;;10.57;8.63;;;23.10;80.50;;;;;;6072359;23;20014;-79
2021/06/15 01:00:00;;;;;;;10.07;8.38;;;23.00;80.70;;;;;;6097202;23;20013;-78
2021/06/15 01:02:28;;;;;;;14.65;9.23;;;23.00;80.90;;;;;;6096273;23;20087;-79
2021/06/15 01:04:56;;;;;;;10.98;9.82;;;22.90;81.20;;;;;;6096577;23;20010;-79
2021/06/15 01:07:44;;;;;;;15.05;9.73;;;22.90;81.30;;;;;;6122081;23;20096;-78
2021/06/15 01:10:29;;;;;;;11.07;9.63;;;22.90;81.30;;;;;;6097260;23;20049;-79
2021/06/15 01:13:25;;;;;;;13.47;8.97;;;22.90;81.10;;;;;;6096721;23;20467;-78
2021/06/15 01:16:09;;;;;;;9.90;8.52;;;22.80;81.40;;;;;;6133370;23;20014;-79
2021/06/15 01:18:42;;;;;;;11.30;8.98;;;22.80;81.60;;;;;;6072374;23;20156;-80
2021/06/15 01:21:11;;;;;;;12.30;9.23;;;22.80;82.30;;;;;;6096308;23;20355;-80
2021/06/15 01:23:54;;;;;;;9.88;8.73;;;22.80;81.60;;;;;;6096341;23;20014;-79
2021/06/15 01:26:38;;;;;;;19.88;11.18;;;22.90;81.60;;;;;;6072973;23;20014;-78
2021/06/15 01:29:09;;;;;;;14.32;11.65;;;22.90;81.40;;;;;;6096247;23;20109;-78
2021/06/15 01:31:45;;;;;;;16.33;11.48;;;23.00;81.00;;;;;;6096326;23;20474;-79
2021/06/15 01:34:27;;;;;;;12.35;10.60;;;23.10;80.60;;;;;;6096649;23;20059;-80
2021/06/15 01:37:10;;;;;;;10.25;9.15;;;23.20;80.40;;;;;;6050469;23;20014;-80
2021/06/15 01:40:04;;;;;;;11.65;9.63;;;23.30;80.50;;;;;;6072906;23;20020;-80
2021/06/15 01:42:50;;;;;;;12.82;10.73;;;23.30;80.40;;;;;;6075004;23;20466;-80
2021/06/15 01:45:24;;;;;;;12.52;10.90;;;23.30;80.00;;;;;;6072488;23;20045;-80
2021/06/15 01:48:27;;;;;;;13.02;10.73;;;23.20;80.00;;;;;;6121529;23;20014;-79
2021/06/15 01:50:55;;;;;;;13.15;11.23;;;23.20;80.10;;;;;;6096429;23;20018;-80
2021/06/15 01:53:23;;;;;;;11.93;10.18;;;23.20;80.00;;;;;;6095861;23;20016;-80
2021/06/15 01:55:54;;;;;;;10.95;9.55;;;23.10;80.20;;;;;;6097160;23;20017;-81
2021/06/15 01:58:26;;;;;;;13.30;10.18;;;23.10;80.40;;;;;;6122130;23;20010;-80
2021/06/15 02:00:56;;;;;;;12.73;10.25;;;23.10;80.50;;;;;;6096478;23;20077;-83
2021/06/15 02:03:23;;;;;;;11.93;10.77;;;23.10;80.70;;;;;;6096548;23;20010;-82
2021/06/15 02:05:55;;;;;;;12.02;10.43;;;23.00;80.70;;;;;;6095979;23;20021;-83
2021/06/15 02:08:27;;;;;;;13.82;11.90;;;23.00;80.70;;;;;;6121723;23;20455;-83
2021/06/15 02:10:58;;;;;;;13.65;11.05;;;23.00;80.60;;;;;;6097601;23;20010;-82
2021/06/15 02:13:50;;;;;;;16.00;12.35;;;23.10;80.60;;;;;;6077078;23;20006;-83
2021/06/15 02:16:53;;;;;;;21.35;11.57;;;23.20;80.40;;;;;;6095986;23;20042;-80
2021/06/15 02:19:32;;;;;;;12.75;11.48;;;23.30;79.90;;;;;;6095959;23;20101;-81
2021/06/15 02:22:08;;;;;;;12.15;9.88;;;23.50;79.50;;;;;;6096606;23;20037;-82
2021/06/15 02:24:44;;;;;;;12.13;10.90;;;23.60;79.50;;;;;;6072581;23;20025;-81
2021/06/15 02:27:16;;;;;;;13.30;11.95;;;23.80;79.30;;;;;;6095955;23;20093;-81
2021/06/15 02:29:42;;;;;;;16.33;13.43;;;24.00;78.20;;;;;;6122264;23;20014;-82
2021/06/15 02:32:13;;;;;;;16.40;12.05;;;24.10;77.30;;;;;;6071965;23;20018;-81
2021/06/15 02:34:46;;;;;;;14.65;11.32;;;24.20;77.10;;;;;;6097014;23;20021;-82
2021/06/15 02:37:15;;;;;;;17.20;12.40;;;24.40;77.00;;;;;;6097130;23;20428;-81
2021/06/15 02:39:41;;;;;;;12.77;11.35;;;24.60;76.60;;;;;;6096817;23;20014;-81
2021/06/15 02:42:13;;;;;;;13.82;12.15;;;24.70;76.30;;;;;;6122745;23;20101;-81
2021/06/15 02:44:42;;;;;;;14.07;12.50;;;24.70;75.80;;;;;;6122830;23;20332;-79
2021/06/15 02:47:14;;;;;;;17.20;11.88;;;24.70;75.60;;;;;;6097432;23;20021;-79
2021/06/15 02:49:53;;;;;;;14.95;11.68;;;24.70;75.80;;;;;;6096712;23;20049;-80
2021/06/15 02:52:39;;;;;;;17.60;12.60;;;24.70;75.90;;;;;;6073036;23;20079;-83
2021/06/15 02:55:12;;;;;;;12.95;11.40;;;24.60;75.90;;;;;;6073565;23;20018;-82
2021/06/15 02:57:39;;;;;;;13.20;11.77;;;24.60;75.40;;;;;;6073579;23;20436;-83
2021/06/15 03:00:10;;;;;;;16.33;11.35;;;24.60;75.30;;;;;;6096366;23;20076;-82
2021/06/15 03:02:36;;;;;;;13.85;10.75;;;24.60;75.50;;;;;;6073255;23;20032;-81
2021/06/15 03:05:09;;;;;;;14.85;12.68;;;24.40;75.40;;;;;;6123716;23;20022;-83
2021/06/15 03:07:37;;;;;;;19.05;12.10;;;24.40;75.80;;;;;;6073247;23;20526;-79
2021/06/15 03:10:07;;;;;;;13.63;12.13;;;24.30;76.10;;;;;;6096665;23;20052;-79
2021/06/15 03:12:57;;;;;;;13.32;11.70;;;24.30;76.30;;;;;;6072646;23;20451;-79
2021/06/15 03:15:48;;;;;;;13.70;11.50;;;24.20;76.50;;;;;;6097381;23;20048;-81
2021/06/15 03:18:33;;;;;;;13.63;12.07;;;24.20;76.70;;;;;;6099016;23;20021;-78
2021/06/15 03:21:06;;;;;;;13.98;12.38;;;24.20;77.00;;;;;;6096406;23;20026;-79
2021/06/15 03:23:44;;;;;;;14.27;12.68;;;24.20;77.50;;;;;;6096696;23;20010;-81
2021/06/15 03:26:17;;;;;;;13.30;11.93;;;24.10;78.30;;;;;;6073286;23;20021;-78
2021/06/15 03:28:49;;;;;;;14.20;12.75;;;24.10;77.90;;;;;;6072672;23;20014;-82
2021/06/15 03:31:18;;;;;;;15.48;13.15;;;24.20;78.50;;;;;;6073757;23;20447;-82
2021/06/15 03:33:48;;;;;;;16.48;13.90;;;24.20;78.30;;;;;;6100334;23;20109;-79
2021/06/15 03:36:18;;;;;;;14.93;13.20;;;24.30;77.90;;;;;;6098209;23;20010;-78
2021/06/15 03:38:45;;;;;;;17.77;14.60;;;24.40;77.70;;;;;;6072542;23;20448;-81
2021/06/15 03:41:15;;;;;;;16.05;14.27;;;24.70;77.40;;;;;;6122745;23;20006;-77
2021/06/15 03:43:47;;;;;;;15.63;11.88;;;24.90;76.80;;;;;;6096580;23;20041;-78
2021/06/15 03:46:15;;;;;;;19.88;14.35;;;25.10;76.10;;;;;;6122052;23;20014;-79
2021/06/15 03:48:46;;;;;;;16.65;14.10;;;25.40;75.60;;;;;;6096861;23;20006;-78
2021/06/15 03:51:22;;;;;;;16.80;13.98;;;25.60;75.30;;;;;;6122836;23;20071;-81
2021/06/15 03:53:48;;;;;;;12.95;11.05;;;25.80;74.70;;;;;;6096450;23;20071;-79
2021/06/15 03:56:15;;;;;;;13.07;11.63;;;26.00;74.40;;;;;;6122551;23;20046;-80
2021/06/15 03:58:42;;;;;;;13.13;11.77;;;26.20;74.00;;;;;;6096368;23;20016;-80
2021/06/15 04:01:13;;;;;;;10.98;9.85;;;26.30;73.50;;;;;;6096641;23;20089;-79
2021/06/15 04:03:41;;;;;;;10.02;9.02;;;26.50;73.30;;;;;;6096622;23;20010;-80
2021/06/15 04:06:09;;;;;;;10.15;9.15;;;26.60;73.30;;;;;;6096784;23;20336;-81
2021/06/15 04:08:39;;;;;;;10.30;9.30;;;26.80;73.30;;;;;;6072937;23;20462;-82
2021/06/15 04:11:08;;;;;;;10.55;9.43;;;27.00;72.80;;;;;;6073185;23;20328;-81
2021/06/15 04:13:35;;;;;;;13.18;10.10;;;27.10;72.50;;;;;;6072473;23;20022;-82
2021/06/15 04:16:02;;;;;;;14.23;11.10;;;27.20;71.50;;;;;;6072623;23;20021;-82
2021/06/15 04:18:30;;;;;;;15.40;11.00;;;27.30;70.60;;;;;;6096462;23;20348;-82
2021/06/15 04:21:02;;;;;;;11.57;10.40;;;27.30;70.40;;;;;;6096581;23;20521;-81
2021/06/15 04:23:37;;;;;;;12.63;10.13;;;27.40;69.70;;;;;;6072216;23;20060;-82
2021/06/15 04:26:03;;;;;;;11.65;10.45;;;27.40;69.50;;;;;;6122623;23;20356;-80
2021/06/15 04:28:31;;;;;;;9.93;9.00;;;27.40;69.20;;;;;;6096260;23;20030;-80
2021/06/15 04:30:57;;;;;;;10.95;9.73;;;27.50;69.30;;;;;;6096303;23;20014;-79
2021/06/15 04:33:28;;;;;;;9.57;8.63;;;27.60;68.60;;;;;;6121652;23;20028;-78
2021/06/15 04:35:58;;;;;;;11.50;8.93;;;27.70;68.60;;;;;;6072039;23;20018;-78
2021/06/15 04:38:45;;;;;;;9.57;7.38;;;27.80;68.30;;;;;;6096620;23;20022;-83
2021/06/15 04:41:19;;;;;;;16.80;6.90;;;28.00;67.50;;;;;;6096532;23;20018;-81
2021/06/15 04:43:52;;;;;;;7.05;6.45;;;28.10;68.60;;;;;;6097002;23;20371;-85
2021/06/15 04:46:30;;;;;;;11.73;8.32;;;28.30;68.90;;;;;;6097229;23;20010;-77
2021/06/15 04:49:08;;;;;;;9.50;7.70;;;28.40;68.10;;;;;;6122203;23;20329;-77
2021/06/15 04:51:36;;;;;;;9.95;8.05;;;28.50;67.40;;;;;;6123253;23;20096;-78
2021/06/15 04:54:04;;;;;;;11.63;7.32;;;28.70;67.70;;;;;;6121893;23;20351;-77
2021/06/15 04:56:30;;;;;;;10.43;7.72;;;28.80;68.30;;;;;;6094944;23;20010;-78
2021/06/15 04:59:01;;;;;;;8.40;6.90;;;28.90;67.40;;;;;;6096283;23;20021;-78
2021/06/15 05:01:29;;;;;;;9.10;7.40;;;29.00;68.00;;;;;;6072216;23;20103;-77
2021/06/15 05:03:55;;;;;;;9.10;7.13;;;29.20;67.70;;;;;;6121471;23;20339;-77
2021/06/15 05:06:22;;;;;;;7.32;6.63;;;29.20;67.30;;;;;;6096450;23;20006;-77
2021/06/15 05:08:58;;;;;;;8.02;7.25;;;29.30;66.20;;;;;;6121674;23;20014;-78
2021/06/15 05:11:33;;;;;;;8.52;7.20;;;29.40;64.90;;;;;;6072429;23;20071;-78
2021/06/15 05:14:04;;;;;;;12.65;7.45;;;29.50;64.00;;;;;;6073513;23;20025;-78
2021/06/15 05:16:34;;;;;;;7.85;6.85;;;29.60;64.30;;;;;;6096301;23;20452;-77
2021/06/15 05:19:01;;;;;;;8.10;6.75;;;29.80;64.70;;;;;;6072313;23;20385;-79
2021/06/15 05:21:41;;;;;;;8.07;7.28;;;29.80;63.00;;;;;;6096212;23;20013;-77
2021/06/15 05:24:25;;;;;;;7.85;7.03;;;29.80;63.20;;;;;;6122160;23;20017;-76
2021/06/15 05:26:52;;;;;;;8.00;6.93;;;29.80;63.40;;;;;;6122026;23;20013;-76
2021/06/15 05:29:18;;;;;;;8.30;6.20;;;29.90;63.00;;;;;;6121634;23;20037;-76
2021/06/15 05:31:45;;;;;;;8.25;7.00;;;30.00;64.30;;;;;;6121713;23;20041;-75
2021/06/15 05:34:11;;;;;;;7.30;6.57;;;30.10;64.00;;;;;;6122005;23;20440;-76
2021/06/15 05:36:40;;;;;;;8.13;6.32;;;30.20;64.10;;;;;;6095556;23;20356;-78
2021/06/15 05:39:07;;;;;;;8.85;6.13;;;30.30;62.90;;;;;;6198671;23;20048;-76
2021/06/15 05:41:33;;;;;;;7.18;5.82;;;30.40;63.60;;;;;;6098436;23;20013;-77
2021/06/15 05:43:59;;;;;;;7.07;6.38;;;30.50;63.00;;;;;;6071708;23;20010;-76
2021/06/15 05:46:25;;;;;;;9.38;6.07;;;30.60;63.60;;;;;;6122140;23;20096;-78
2021/06/15 05:48:51;;;;;;;7.30;6.28;;;30.70;62.60;;;;;;6121528;23;20515;-76
2021/06/15 05:51:18;;;;;;;8.75;7.10;;;30.70;60.90;;;;;;6121913;23;20013;-77
2021/06/15 05:53:44;;;;;;;8.00;6.10;;;30.80;60.10;;;;;;6121983;23;20026;-75
2021/06/15 05:56:10;;;;;;;6.53;5.88;;;30.90;59.70;;;;;;6121622;23;20034;-76
2021/06/15 05:58:38;;;;;;;6.70;5.63;;;30.90;59.70;;;;;;6121375;23;20099;-76
2021/06/15 06:01:04;;;;;;;7.28;6.18;;;31.00;59.90;;;;;;6121619;23;20105;-75
2021/06/15 06:03:35;;;;;;;5.53;5.00;;;31.10;58.80;;;;;;6096436;23;20034;-76
2021/06/15 06:08:46;;;;;;;8.88;6.32;;;31.00;61.70;;;;;;6121852;23;20017;-74
2021/06/15 06:11:12;;;;;;;6.68;6.07;;;30.90;63.50;;;;;;6095716;23;20024;-74
2021/06/15 06:13:38;;;;;;;8.57;5.75;;;30.70;63.00;;;;;;6095882;23;20033;-74
2021/06/15 06:16:08;;;;;;;6.97;5.50;;;30.80;63.50;;;;;;6121413;23;20348;-75
2021/06/15 06:18:38;;;;;;;11.88;6.40;;;30.70;65.00;;;;;;6095821;23;20022;-77
2021/06/15 06:21:08;;;;;;;11.13;5.72;;;30.60;64.70;;;;;;6072350;23;20459;-77
2021/06/15 06:23:37;;;;;;;6.65;5.57;;;30.60;64.80;;;;;;6072554;23;20029;-78
2021/06/15 06:26:05;;;;;;;8.55;5.88;;;30.60;64.60;;;;;;6121146;23;20104;-78
2021/06/15 06:28:32;;;;;;;7.35;5.72;;;30.50;63.80;;;;;;6121274;23;20010;-79
2021/06/15 06:30:58;;;;;;;10.43;6.18;;;30.60;65.40;;;;;;6121355;23;20021;-78
2021/06/15 06:33:24;;;;;;;7.00;6.15;;;30.50;65.80;;;;;;6071266;23;20075;-77
2021/06/15 06:35:51;;;;;;;8.30;5.80;;;30.60;65.80;;;;;;6121776;23;20101;-76
2021/06/15 06:38:18;;;;;;;6.50;6.00;;;30.60;65.90;;;;;;6121102;23;20514;-78
2021/06/15 06:40:47;;;;;;;5.90;5.35;;;30.60;63.70;;;;;;6095672;23;20432;-79
2021/06/15 06:43:13;;;;;;;5.85;5.28;;;30.50;63.80;;;;;;6121190;23;20021;-76
2021/06/15 06:45:39;;;;;;;6.28;5.68;;;30.60;65.00;;;;;;6122102;23;20010;-81
2021/06/15 06:48:08;;;;;;;8.73;5.72;;;30.60;65.90;;;;;;6123578;23;20010;-82
2021/06/15 06:50:34;;;;;;;6.75;6.15;;;30.50;66.20;;;;;;6071787;23;20024;-82
2021/06/15 06:53:01;;;;;;;6.45;5.85;;;30.40;63.70;;;;;;6096154;23;20017;-79
2021/06/15 06:55:29;;;;;;;8.32;5.65;;;30.20;65.70;;;;;;6097799;23;20320;-81
2021/06/15 06:57:55;;;;;;;7.70;5.72;;;30.20;65.60;;;;;;6095601;23;20071;-87
2021/06/15 07:00:22;;;;;;;6.32;5.57;;;30.00;65.80;;;;;;6121352;23;20010;-81
2021/06/15 07:02:49;;;;;;;7.70;5.78;;;30.00;65.80;;;;;;6120768;23;20097;-82
2021/06/15 07:05:16;;;;;;;7.88;6.20;;;29.90;65.90;;;;;;6095763;23;20097;-82
2021/06/15 07:07:42;;;;;;;8.05;5.60;;;29.90;66.10;;;;;;6095640;23;20017;-82
2021/06/15 07:10:09;;;;;;;12.68;6.15;;;29.90;64.00;;;;;;6071608;23;20041;-79
2021/06/15 07:12:35;;;;;;;9.13;5.45;;;29.90;65.50;;;;;;6120850;23;20018;-78
2021/06/15 07:15:01;;;;;;;9.93;5.40;;;29.80;63.00;;;;;;6095202;23;20337;-77
2021/06/15 07:17:27;;;;;;;6.75;5.50;;;29.70;64.80;;;;;;6121089;23;20010;-78
2021/06/15 07:19:53;;;;;;;7.18;5.55;;;29.70;65.10;;;;;;6095952;23;20329;-86
2021/06/15 07:22:19;;;;;;;10.82;5.75;;;29.70;65.20;;;;;;6122243;23;20355;-78
2021/06/15 07:24:46;;;;;;;5.93;5.30;;;29.60;65.10;;;;;;6072681;23;20080;-86
2021/06/15 07:27:13;;;;;;;7.13;5.53;;;29.60;65.40;;;;;;6123151;23;20022;-85
2021/06/15 07:29:39;;;;;;;7.32;5.10;;;29.50;65.50;;;;;;6122891;23;20071;-85
2021/06/15 07:32:05;;;;;;;6.60;4.80;;;29.50;65.50;;;;;;6073015;23;20025;-79
2021/06/15 07:34:33;;;;;;;5.68;5.05;;;29.40;65.50;;;;;;6072728;23;20085;-81
2021/06/15 07:37:01;;;;;;;5.53;5.03;;;29.40;65.60;;;;;;6072806;23;20025;-80
2021/06/15 07:39:29;;;;;;;6.50;5.40;;;29.40;65.50;;;;;;6097118;23;20046;-82
2021/06/15 07:41:59;;;;;;;5.82;5.30;;;29.30;65.40;;;;;;6096875;23;20096;-82
2021/06/15 07:44:27;;;;;;;7.38;5.15;;;29.30;65.40;;;;;;6095965;23;20456;-76
2021/06/15 07:46:55;;;;;;;8.25;5.22;;;29.20;64.90;;;;;;6121412;23;20010;-83
2021/06/15 07:49:24;;;;;;;7.47;5.30;;;29.20;65.10;;;;;;6072792;23;20440;-82
2021/06/15 07:51:54;;;;;;;7.60;5.07;;;29.20;65.10;;;;;;6075889;23;20055;-90
2021/06/15 07:54:21;;;;;;;9.05;5.45;;;29.10;65.30;;;;;;6098939;23;20010;-75
2021/06/15 07:56:48;;;;;;;8.43;5.20;;;29.10;65.10;;;;;;6121882;23;20093;-78
2021/06/15 07:59:16;;;;;;;8.55;5.60;;;29.10;65.60;;;;;;6096427;23;20026;-79
2021/06/15 08:01:45;;;;;;;6.97;5.45;;;29.10;66.00;;;;;;6074958;23;20013;-79
2021/06/15 08:04:14;;;;;;;6.72;5.53;;;29.10;65.90;;;;;;6096215;23;20096;-77
2021/06/15 08:06:40;;;;;;;6.70;5.97;;;29.10;65.70;;;;;;6122621;23;20467;-77
2021/06/15 08:09:06;;;;;;;6.00;5.40;;;29.10;65.30;;;;;;6121627;23;20052;-79
2021/06/15 08:11:32;;;;;;;6.18;5.57;;;29.00;65.10;;;;;;6072332;23;20100;-80
2021/06/15 08:14:00;;;;;;;8.43;5.40;;;29.00;65.40;;;;;;6096140;23;20502;-76
2021/06/15 08:16:26;;;;;;;9.48;5.75;;;29.00;65.70;;;;;;6096342;23;20018;-76
2021/06/15 08:18:52;;;;;;;6.07;5.30;;;29.00;66.20;;;;;;6121760;23;20516;-75
2021/06/15 08:21:17;;;;;;;8.15;5.88;;;29.00;65.40;;;;;;6096388;23;20010;-75
2021/06/15 08:23:43;;;;;;;9.35;5.90;;;29.00;63.50;;;;;;6122000;23;20101;-75
2021/06/15 08:26:10;;;;;;;5.70;5.10;;;29.00;64.90;;;;;;6073532;23;20020;-80
2021/06/15 08:28:36;;;;;;;6.20;5.50;;;29.00;64.80;;;;;;6098652;23;20386;-75
2021/06/15 08:31:02;;;;;;;6.82;5.60;;;28.90;64.80;;;;;;6121899;23;20018;-77
2021/06/15 08:33:29;;;;;;;7.57;5.68;;;28.90;64.80;;;;;;6121606;23;20022;-76
2021/06/15 08:35:55;;;;;;;6.22;5.63;;;29.00;65.10;;;;;;6121818;23;20018;-77
2021/06/15 08:38:21;;;;;;;11.18;6.55;;;28.90;64.90;;;;;;6121722;23;20020;-77
2021/06/15 08:40:51;;;;;;;10.48;6.32;;;28.90;65.10;;;;;;6121682;23;20471;-77
2021/06/15 08:43:20;;;;;;;10.55;7.18;;;28.80;65.20;;;;;;6096117;23;20010;-75
2021/06/15 08:45:47;;;;;;;9.85;6.85;;;28.80;66.10;;;;;;6096174;23;20018;-77
2021/06/15 08:48:14;;;;;;;8.15;6.80;;;28.90;66.60;;;;;;6096198;23;20440;-78
2021/06/15 08:50:41;;;;;;;10.48;6.57;;;28.90;66.80;;;;;;6122031;23;20099;-82
2021/06/15 08:53:08;;;;;;;9.13;6.68;;;28.90;66.70;;;;;;6096521;23;20017;-83
2021/06/15 08:55:36;;;;;;;8.40;6.60;;;28.90;66.20;;;;;;6096416;23;20049;-82
2021/06/15 08:58:14;;;;;;;7.90;6.40;;;28.80;65.30;;;;;;6096359;23;20456;-82
2021/06/15 09:00:40;;;;;;;7.25;6.55;;;28.80;65.50;;;;;;6122064;23;20088;-81
2021/06/15 09:03:06;;;;;;;12.35;7.05;;;28.80;65.70;;;;;;6097794;23;20139;-83
2021/06/15 09:05:33;;;;;;;7.43;6.38;;;28.80;65.90;;;;;;6072905;23;20041;-82
2021/06/15 09:08:11;;;;;;;8.35;6.25;;;28.80;66.10;;;;;;6096295;23;20010;-82
2021/06/15 09:10:41;;;;;;;11.57;6.20;;;28.80;66.00;;;;;;6096322;23;20018;-81
2021/06/15 09:13:36;;;;;;;6.93;6.22;;;28.80;66.00;;;;;;6071838;23;20063;-82
2021/06/15 09:16:18;;;;;;;;;;;28.70;66.90;;;;;;6122130;23;20025;-82
2021/06/15 09:18:44;;;;;;;9.48;6.70;;;28.80;66.30;;;;;;6095762;23;19931;-83
2021/06/15 09:21:10;;;;;;;7.47;6.22;;;28.80;66.10;;;;;;6071684;23;20100;-82
2021/06/15 09:23:38;;;;;;;7.65;5.97;;;28.80;66.10;;;;;;6121456;23;20075;-84
2021/06/15 09:26:06;;;;;;;9.95;6.30;;;28.70;65.90;;;;;;6071711;23;20320;-85
2021/06/15 09:28:32;;;;;;;6.75;6.15;;;28.70;66.00;;;;;;6095865;23;20006;-84
2021/06/15 09:31:08;;;;;;;6.80;6.20;;;28.80;66.10;;;;;;6121868;23;20018;-83
2021/06/15 09:33:36;;;;;;;8.25;7.00;;;28.70;66.00;;;;;;6096138;23;20028;-83
2021/06/15 09:36:28;;;;;;;7.22;6.50;;;28.70;66.00;;;;;;6071865;23;20072;-83
2021/06/15 09:38:59;;;;;;;8.07;6.10;;;28.70;66.10;;;;;;6095398;23;20033;-82
2021/06/15 09:41:42;;;;;;;6.63;6.03;;;28.70;66.00;;;;;;6095611;23;20337;-82
2021/06/15 09:44:26;;;;;;;7.43;6.50;;;28.70;66.00;;;;;;6095528;23;20451;-82
2021/06/15 09:47:01;;;;;;;7.15;6.45;;;28.70;65.80;;;;;;6071965;23;20010;-83
2021/06/15 09:49:29;;;;;;;;;;;28.70;65.80;;;;;;6072544;23;20172;-82
2021/06/15 09:52:18;;;;;;;6.85;6.25;;;28.80;65.70;;;;;;6071858;23;19915;-84
2021/06/15 09:55:05;;;;;;;6.47;5.88;;;28.70;65.50;;;;;;6096098;23;20130;-84
2021/06/15 09:57:45;;;;;;;10.40;6.25;;;28.70;65.50;;;;;;6121568;23;20017;-84
2021/06/15 10:00:17;;;;;;;6.75;6.05;;;28.70;63.40;;;;;;6098953;23;20097;-84
2021/06/15 10:02:46;;;;;;;6.85;6.15;;;28.70;64.70;;;;;;6121494;23;20014;-82
2021/06/15 10:05:31;;;;;;;6.47;5.97;;;28.70;64.50;;;;;;6071789;23;20010;-83
2021/06/15 10:08:03;;;;;;;7.30;6.30;;;28.70;65.00;;;;;;6095416;23;20081;-80
2021/06/15 10:10:38;;;;;;;6.72;6.13;;;28.70;63.90;;;;;;6122513;23;20017;-83
2021/06/15 10:13:06;;;;;;;10.25;6.63;;;28.70;63.50;;;;;;6096469;23;20022;-82
2021/06/15 10:15:33;;;;;;;6.90;6.30;;;28.70;63.80;;;;;;6071884;23;20016;-81
2021/06/15 10:18:00;;;;;;;6.55;5.95;;;28.70;63.00;;;;;;6095544;23;20014;-84
2021/06/15 10:20:31;;;;;;;6.70;5.82;;;28.60;63.60;;;;;;6095846;23;20041;-82
2021/06/15 10:22:58;;;;;;;6.82;6.00;;;28.60;63.70;;;;;;6071924;23;20071;-82
2021/06/15 10:25:28;;;;;;;6.95;6.28;;;28.60;63.60;;;;;;6095728;23;20021;-83
2021/06/15 10:27:55;;;;;;;7.28;6.57;;;28.60;63.30;;;;;;6095664;23;20010;-84
2021/06/15 10:30:34;;;;;;;7.25;6.53;;;28.60;61.60;;;;;;6095643;23;20041;-85
2021/06/15 10:33:12;;;;;;;6.70;6.10;;;28.60;61.00;;;;;;6066643;23;20356;-84
2021/06/15 10:35:43;;;;;;;10.68;7.40;;;28.60;62.00;;;;;;6090935;23;20352;-81
2021/06/15 10:38:10;;;;;;;6.80;6.10;;;28.60;59.20;;;;;;6091656;23;20100;-80
2021/06/15 10:40:39;;;;;;;7.75;6.13;;;28.60;61.30;;;;;;6067331;23;20017;-83
2021/06/15 10:43:11;;;;;;;7.00;6.40;;;28.60;62.10;;;;;;6090660;23;20010;-85
2021/06/15 10:45:38;;;;;;;9.73;7.18;;;28.60;62.10;;;;;;6091009;23;20060;-80
2021/06/15 10:48:04;;;;;;;9.02;7.30;;;28.60;62.30;;;;;;6091160;23;20105;-77
2021/06/15 10:50:37;;;;;;;10.77;7.28;;;28.70;60.20;;;;;;6090760;23;20015;-78
2021/06/15 10:53:06;;;;;;;8.63;6.95;;;28.70;62.70;;;;;;6091838;23;20539;-76
2021/06/15 10:55:48;;;;;;;12.80;6.93;;;28.70;62.10;;;;;;6093284;23;20010;-77
2021/06/15 10:58:17;;;;;;;8.75;6.57;;;28.70;62.80;;;;;;6091657;23;20469;-77
2021/06/15 11:00:44;;;;;;;10.40;6.40;;;28.70;62.70;;;;;;6091217;23;20062;-79
2021/06/15 11:03:16;;;;;;;12.00;6.40;;;28.60;62.60;;;;;;6093588;23;20018;-79
2021/06/15 11:05:56;;;;;;;8.80;6.55;;;28.70;63.40;;;;;;6093392;23;20017;-81
2021/06/15 11:08:30;;;;;;;10.55;7.80;;;28.70;63.30;;;;;;6091576;23;20084;-81
2021/06/15 11:10:58;;;;;;;8.77;6.18;;;28.60;63.20;;;;;;6093047;23;20011;-79
2021/06/15 11:13:48;;;;;;;10.13;6.95;;;28.60;63.30;;;;;;6091576;23;20050;-86
2021/06/15 11:16:34;;;;;;;12.27;7.03;;;28.60;63.70;;;;;;6090067;23;20044;-83
2021/06/15 11:19:09;;;;;;;8.68;6.85;;;28.60;63.90;;;;;;6091754;23;20029;-85
2021/06/15 11:21:48;;;;;;;10.70;7.20;;;28.60;63.80;;;;;;6092119;23;20019;-86
2021/06/15 11:24:27;;;;;;;10.75;6.63;;;28.60;63.50;;;;;;6091389;23;20022;-85
2021/06/15 11:26:54;;;;;;;9.05;6.10;;;28.60;62.70;;;;;;6091685;23;20014;-83
2021/06/15 11:29:42;;;;;;;7.82;6.65;;;28.60;63.40;;;;;;6092371;23;20340;-83
2021/06/15 11:32:33;;;;;;;11.27;6.90;;;28.60;63.70;;;;;;6093934;23;20097;-81
2021/06/15 11:35:07;;;;;;;10.00;6.68;;;28.60;63.80;;;;;;6071084;23;20015;-81
2021/06/15 11:37:37;;;;;;;7.32;6.35;;;28.60;64.20;;;;;;6093873;23;20017;-84
2021/06/15 11:40:13;;;;;;;7.40;6.63;;;28.60;64.70;;;;;;6068492;23;20068;-82
2021/06/15 11:42:40;;;;;;;7.55;6.85;;;28.60;64.50;;;;;;6092016;23;20021;-83
2021/06/15 11:45:14;;;;;;;7.95;7.15;;;28.60;64.70;;;;;;6067940;23;20022;-83
2021/06/15 11:47:48;;;;;;;7.60;6.93;;;28.60;64.90;;;;;;6093112;23;20021;-83
2021/06/15 11:50:33;;;;;;;9.73;6.43;;;28.60;63.40;;;;;;6093377;23;20015;-82
2021/06/15 11:53:01;;;;;;;;;;;28.60;63.60;;;;;;6092335;23;20010;-81
2021/06/15 11:55:42;;;;;;;7.82;6.50;;;28.70;63.80;;;;;;6093129;23;19909;-80
2021/06/15 11:58:11;;;;;;;9.60;6.78;;;28.60;64.70;;;;;;6067712;23;20069;-82
2021/06/15 12:00:40;;;;;;;8.68;6.90;;;28.70;64.00;;;;;;6067760;23;20148;-83
2021/06/15 12:03:17;;;;;;;9.02;6.70;;;28.60;64.50;;;;;;6091598;23;20007;-83
2021/06/15 12:05:46;;;;;;;9.05;7.10;;;28.60;64.90;;;;;;6093362;23;20192;-84
2021/06/15 12:08:12;;;;;;;8.50;6.72;;;28.60;63.70;;;;;;6092012;23;20018;-83
2021/06/15 12:10:40;;;;;;;11.35;7.65;;;28.60;63.90;;;;;;6091987;23;20336;-83
2021/06/15 12:13:08;;;;;;;8.95;6.75;;;28.60;61.30;;;;;;6067722;23;20101;-80
2021/06/15 12:15:48;;;;;;;9.23;6.95;;;28.60;62.60;;;;;;6091918;23;20056;-79
2021/06/15 12:18:30;;;;;;;8.30;7.03;;;28.60;63.20;;;;;;6093182;23;20030;-80
2021/06/15 12:21:00;;;;;;;7.75;7.05;;;28.60;62.00;;;;;;6093207;23;20014;-81
2021/06/15 12:23:26;;;;;;;9.25;7.03;;;28.60;62.30;;;;;;6092059;23;20079;-81
2021/06/15 12:25:54;;;;;;;9.07;7.22;;;28.60;62.40;;;;;;6068030;23;20018;-87
2021/06/15 12:28:24;;;;;;;8.18;6.88;;;28.60;62.40;;;;;;6069113;23;20084;-85
2021/06/15 12:31:11;;;;;;;6.90;6.30;;;28.60;62.10;;;;;;6092121;23;20093;-79
2021/06/15 12:33:38;;;;;;;9.52;6.93;;;28.60;63.10;;;;;;6067524;23;20053;-79
2021/06/15 12:36:09;;;;;;;7.38;6.55;;;28.70;62.70;;;;;;6092257;23;20022;-86
2021/06/15 12:38:36;;;;;;;10.15;6.85;;;28.70;63.70;;;;;;6068891;23;20106;-88
2021/06/15 12:41:09;;;;;;;13.05;7.70;;;28.70;63.70;;;;;;6092967;23;20014;-83
2021/06/15 12:43:39;;;;;;;7.85;6.25;;;28.60;63.30;;;;;;6093219;23;20014;-82
2021/06/15 12:46:12;;;;;;;8.80;6.63;;;28.70;63.50;;;;;;6067636;23;20010;-80
2021/06/15 12:49:03;;;;;;;9.80;6.65;;;28.70;63.00;;;;;;6068916;23;20403;-80
2021/06/15 12:51:43;;;;;;;10.10;6.90;;;28.60;61.60;;;;;;6067898;23;20088;-82
2021/06/15 12:54:24;;;;;;;8.25;6.88;;;28.60;61.60;;;;;;6091824;23;20036;-83
2021/06/15 12:56:58;;;;;;;8.32;7.50;;;28.60;61.70;;;;;;6091586;23;20063;-84
2021/06/15 12:59:24;;;;;;;9.27;6.78;;;28.60;59.70;;;;;;6092265;23;20018;-86
2021/06/15 13:01:50;;;;;;;7.40;6.60;;;28.70;61.80;;;;;;6067126;23;20025;-81
2021/06/15 13:04:19;;;;;;;7.80;6.90;;;28.70;62.50;;;;;;6091062;23;20010;-80